sensor_id;sensor_type;location;lat;lon;timestamp;temperature;humidity
37432;DHT22;23292;51.300;6.252;2024-02-21T00:02:20;9.30;99.90
37432;DHT22;23292;51.300;6.252;2024-02-21T00:04:47;9.30;99.90
37432;DHT22;23292;51.300;6.252;2024-02-21T00:07:14;9.30;99.90
37432;DHT22;23292;51.300;6.252;2024-02-21T00:09:41;9.30;99.90
37432;DHT22;23292;51.300;6.252;2024-02-21T00:12:08;9.30;99.90
37432;DHT22;23292;51.300;6.252;2024-02-21T00:14:35;9.20;99.90
37432;DHT22;23292;51.300;6.252;2024-02-21T00:17:02;9.20;99.90
37432;DHT22;23292;51.300;6.252;2024-02-21T00:19:29;9.30;99.90
37432;DHT22;23292;51.300;6.252;2024-02-21T00:21:55;9.20;99.90
37432;DHT22;23292;51.300;6.252;2024-02-21T00:24:22;9.20;99.90
37432;DHT22;23292;51.300;6.252;2024-02-21T00:26:49;9.30;99.90
37432;DHT22;23292;51.300;6.252;2024-02-21T00:29:16;9.30;99.90
37432;DHT22;23292;51.300;6.252;2024-02-21T00:31:42;9.30;99.90
37432;DHT22;23292;51.300;6.252;2024-02-21T00:34:11;9.20;99.90
37432;DHT22;23292;51.300;6.252;2024-02-21T00:36:39;9.20;99.90
37432;DHT22;23292;51.300;6.252;2024-02-21T00:39:06;9.30;99.90
37432;DHT22;23292;51.300;6.252;2024-02-21T00:41:33;9.20;99.90
37432;DHT22;23292;51.300;6.252;2024-02-21T00:43:59;9.30;99.90
37432;DHT22;23292;51.300;6.252;2024-02-21T00:46:26;9.30;99.90
37432;DHT22;23292;51.300;6.252;2024-02-21T00:48:53;9.20;99.90
37432;DHT22;23292;51.300;6.252;2024-02-21T00:51:20;9.20;99.90
37432;DHT22;23292;51.300;6.252;2024-02-21T00:53:47;9.30;99.90
37432;DHT22;23292;51.300;6.252;2024-02-21T00:56:14;9.30;99.90
37432;DHT22;23292;51.300;6.252;2024-02-21T00:58:41;9.30;99.90
37432;DHT22;23292;51.300;6.252;2024-02-21T01:01:08;9.30;99.90
37432;DHT22;23292;51.300;6.252;2024-02-21T01:03:35;9.30;99.90
37432;DHT22;23292;51.300;6.252;2024-02-21T01:06:01;9.30;99.90
37432;DHT22;23292;51.300;6.252;2024-02-21T01:08:28;9.30;99.90
37432;DHT22;23292;51.300;6.252;2024-02-21T01:10:55;9.30;99.90
37432;DHT22;23292;51.300;6.252;2024-02-21T01:13:22;9.30;99.90
37432;DHT22;23292;51.300;6.252;2024-02-21T01:15:48;9.30;99.90
37432;DHT22;23292;51.300;6.252;2024-02-21T01:18:15;9.30;99.90
37432;DHT22;23292;51.300;6.252;2024-02-21T01:20:42;9.30;99.90
37432;DHT22;23292;51.300;6.252;2024-02-21T01:23:09;9.20;99.90
37432;DHT22;23292;51.300;6.252;2024-02-21T01:25:36;9.30;99.90
37432;DHT22;23292;51.300;6.252;2024-02-21T01:28:03;9.40;99.90
37432;DHT22;23292;51.300;6.252;2024-02-21T01:30:30;9.30;99.90
37432;DHT22;23292;51.300;6.252;2024-02-21T01:32:57;9.30;99.90
37432;DHT22;23292;51.300;6.252;2024-02-21T01:35:23;9.30;99.90
37432;DHT22;23292;51.300;6.252;2024-02-21T01:37:50;9.40;99.90
37432;DHT22;23292;51.300;6.252;2024-02-21T01:40:18;9.40;99.90
37432;DHT22;23292;51.300;6.252;2024-02-21T01:42:45;9.40;99.90
37432;DHT22;23292;51.300;6.252;2024-02-21T01:45:13;9.40;99.90
37432;DHT22;23292;51.300;6.252;2024-02-21T01:47:44;9.40;99.90
37432;DHT22;23292;51.300;6.252;2024-02-21T01:50:12;9.30;99.90
37432;DHT22;23292;51.300;6.252;2024-02-21T01:52:39;9.40;99.90
37432;DHT22;23292;51.300;6.252;2024-02-21T01:55:06;9.30;99.90
37432;DHT22;23292;51.300;6.252;2024-02-21T01:57:34;9.30;99.90
37432;DHT22;23292;51.300;6.252;2024-02-21T02:00:01;9.30;99.90
37432;DHT22;23292;51.300;6.252;2024-02-21T02:02:38;9.30;99.90
37432;DHT22;23292;51.300;6.252;2024-02-21T02:05:06;9.20;99.90
37432;DHT22;23292;51.300;6.252;2024-02-21T02:07:34;9.20;99.90
37432;DHT22;23292;51.300;6.252;2024-02-21T02:10:01;9.20;99.90
37432;DHT22;23292;51.300;6.252;2024-02-21T02:12:28;9.20;99.90
37432;DHT22;23292;51.300;6.252;2024-02-21T02:15:02;9.20;99.90
37432;DHT22;23292;51.300;6.252;2024-02-21T02:17:31;9.20;99.90
37432;DHT22;23292;51.300;6.252;2024-02-21T02:19:58;9.20;99.90
37432;DHT22;23292;51.300;6.252;2024-02-21T02:22:28;9.20;99.90
37432;DHT22;23292;51.300;6.252;2024-02-21T02:24:56;9.30;99.90
37432;DHT22;23292;51.300;6.252;2024-02-21T02:27:23;9.30;99.90
37432;DHT22;23292;51.300;6.252;2024-02-21T02:29:50;9.30;99.90
37432;DHT22;23292;51.300;6.252;2024-02-21T02:32:18;9.30;99.90
37432;DHT22;23292;51.300;6.252;2024-02-21T02:34:45;9.30;99.90
37432;DHT22;23292;51.300;6.252;2024-02-21T02:37:12;9.20;99.90
37432;DHT22;23292;51.300;6.252;2024-02-21T02:39:39;9.30;99.90
37432;DHT22;23292;51.300;6.252;2024-02-21T02:42:05;9.20;99.90
37432;DHT22;23292;51.300;6.252;2024-02-21T02:44:32;9.20;99.90
37432;DHT22;23292;51.300;6.252;2024-02-21T02:46:59;9.10;99.90
37432;DHT22;23292;51.300;6.252;2024-02-21T02:49:26;9.20;99.90
37432;DHT22;23292;51.300;6.252;2024-02-21T02:51:52;9.20;99.90
37432;DHT22;23292;51.300;6.252;2024-02-21T02:54:19;9.20;99.90
37432;DHT22;23292;51.300;6.252;2024-02-21T02:56:46;9.20;99.90
37432;DHT22;23292;51.300;6.252;2024-02-21T02:59:13;9.20;99.90
37432;DHT22;23292;51.300;6.252;2024-02-21T03:01:39;9.20;99.90
37432;DHT22;23292;51.300;6.252;2024-02-21T03:04:06;9.20;99.90
37432;DHT22;23292;51.300;6.252;2024-02-21T03:06:33;9.10;99.90
37432;DHT22;23292;51.300;6.252;2024-02-21T03:09:00;9.20;99.90
37432;DHT22;23292;51.300;6.252;2024-02-21T03:11:27;9.20;99.90
37432;DHT22;23292;51.300;6.252;2024-02-21T03:13:56;9.10;99.90
37432;DHT22;23292;51.300;6.252;2024-02-21T03:16:23;9.20;99.90
37432;DHT22;23292;51.300;6.252;2024-02-21T03:18:50;9.20;99.90
37432;DHT22;23292;51.300;6.252;2024-02-21T03:21:17;9.20;99.90
37432;DHT22;23292;51.300;6.252;2024-02-21T03:23:44;9.20;99.90
37432;DHT22;23292;51.300;6.252;2024-02-21T03:26:10;9.20;99.90
37432;DHT22;23292;51.300;6.252;2024-02-21T03:28:37;9.20;99.90
37432;DHT22;23292;51.300;6.252;2024-02-21T03:31:06;9.20;99.90
37432;DHT22;23292;51.300;6.252;2024-02-21T03:33:33;9.20;99.90
37432;DHT22;23292;51.300;6.252;2024-02-21T03:35:59;9.20;99.90
37432;DHT22;23292;51.300;6.252;2024-02-21T03:38:26;9.10;99.90
37432;DHT22;23292;51.300;6.252;2024-02-21T03:40:53;9.10;99.90
37432;DHT22;23292;51.300;6.252;2024-02-21T03:43:20;9.10;99.90
37432;DHT22;23292;51.300;6.252;2024-02-21T03:45:46;9.20;99.90
37432;DHT22;23292;51.300;6.252;2024-02-21T03:48:13;9.20;99.90
37432;DHT22;23292;51.300;6.252;2024-02-21T03:50:40;9.20;99.90
37432;DHT22;23292;51.300;6.252;2024-02-21T03:53:07;9.10;99.90
37432;DHT22;23292;51.300;6.252;2024-02-21T03:55:33;9.10;99.90
37432;DHT22;23292;51.300;6.252;2024-02-21T03:58:00;9.10;99.90
37432;DHT22;23292;51.300;6.252;2024-02-21T04:00:27;9.00;99.90
37432;DHT22;23292;51.300;6.252;2024-02-21T04:02:54;9.10;99.90
37432;DHT22;23292;51.300;6.252;2024-02-21T04:05:22;9.00;99.90
37432;DHT22;23292;51.300;6.252;2024-02-21T04:07:49;9.00;99.90
37432;DHT22;23292;51.300;6.252;2024-02-21T04:10:16;9.10;99.90
37432;DHT22;23292;51.300;6.252;2024-02-21T04:12:43;9.00;99.90
37432;DHT22;23292;51.300;6.252;2024-02-21T04:15:09;9.00;99.90
37432;DHT22;23292;51.300;6.252;2024-02-21T04:17:36;9.00;99.90
37432;DHT22;23292;51.300;6.252;2024-02-21T04:20:04;9.00;99.90
37432;DHT22;23292;51.300;6.252;2024-02-21T04:22:32;9.00;99.90
37432;DHT22;23292;51.300;6.252;2024-02-21T04:25:00;8.90;99.90
37432;DHT22;23292;51.300;6.252;2024-02-21T04:27:27;8.80;99.90
37432;DHT22;23292;51.300;6.252;2024-02-21T04:29:54;9.00;99.90
37432;DHT22;23292;51.300;6.252;2024-02-21T04:32:21;9.00;99.90
37432;DHT22;23292;51.300;6.252;2024-02-21T04:34:48;8.90;99.90
37432;DHT22;23292;51.300;6.252;2024-02-21T04:37:15;8.90;99.90
37432;DHT22;23292;51.300;6.252;2024-02-21T04:39:42;8.90;99.90
37432;DHT22;23292;51.300;6.252;2024-02-21T04:42:09;8.90;99.90
37432;DHT22;23292;51.300;6.252;2024-02-21T04:44:35;8.80;99.90
37432;DHT22;23292;51.300;6.252;2024-02-21T04:47:02;8.80;99.90
37432;DHT22;23292;51.300;6.252;2024-02-21T04:49:30;8.80;99.90
37432;DHT22;23292;51.300;6.252;2024-02-21T04:51:57;8.80;99.90
37432;DHT22;23292;51.300;6.252;2024-02-21T04:54:24;8.80;99.90
37432;DHT22;23292;51.300;6.252;2024-02-21T04:56:51;8.80;99.90
37432;DHT22;23292;51.300;6.252;2024-02-21T04:59:19;8.80;99.90
37432;DHT22;23292;51.300;6.252;2024-02-21T05:01:46;8.80;99.90
37432;DHT22;23292;51.300;6.252;2024-02-21T05:04:13;8.80;99.90
37432;DHT22;23292;51.300;6.252;2024-02-21T05:06:40;8.80;99.90
37432;DHT22;23292;51.300;6.252;2024-02-21T05:09:09;8.80;99.90
37432;DHT22;23292;51.300;6.252;2024-02-21T05:11:36;9.00;99.90
37432;DHT22;23292;51.300;6.252;2024-02-21T05:14:04;9.00;99.90
37432;DHT22;23292;51.300;6.252;2024-02-21T05:16:31;8.90;99.90
37432;DHT22;23292;51.300;6.252;2024-02-21T05:18:58;8.90;99.90
37432;DHT22;23292;51.300;6.252;2024-02-21T05:21:25;9.00;99.90
37432;DHT22;23292;51.300;6.252;2024-02-21T05:23:52;9.00;99.90
37432;DHT22;23292;51.300;6.252;2024-02-21T05:26:25;9.00;99.90
37432;DHT22;23292;51.300;6.252;2024-02-21T05:28:52;9.00;99.90
37432;DHT22;23292;51.300;6.252;2024-02-21T05:31:20;9.00;99.90
37432;DHT22;23292;51.300;6.252;2024-02-21T05:33:48;8.90;99.90
37432;DHT22;23292;51.300;6.252;2024-02-21T05:36:14;9.00;99.90
37432;DHT22;23292;51.300;6.252;2024-02-21T05:38:41;9.00;99.90
37432;DHT22;23292;51.300;6.252;2024-02-21T05:41:08;9.00;99.90
37432;DHT22;23292;51.300;6.252;2024-02-21T05:43:38;8.90;99.90
37432;DHT22;23292;51.300;6.252;2024-02-21T05:46:05;9.00;99.90
37432;DHT22;23292;51.300;6.252;2024-02-21T05:48:31;9.00;99.90
37432;DHT22;23292;51.300;6.252;2024-02-21T05:51:04;9.00;99.90
37432;DHT22;23292;51.300;6.252;2024-02-21T05:53:31;8.90;99.90
37432;DHT22;23292;51.300;6.252;2024-02-21T05:55:58;8.90;99.90
37432;DHT22;23292;51.300;6.252;2024-02-21T05:58:25;8.90;99.90
37432;DHT22;23292;51.300;6.252;2024-02-21T06:00:51;8.90;99.90
37432;DHT22;23292;51.300;6.252;2024-02-21T06:03:18;8.80;99.90
37432;DHT22;23292;51.300;6.252;2024-02-21T06:05:45;8.80;99.90
37432;DHT22;23292;51.300;6.252;2024-02-21T06:08:12;8.70;99.90
37432;DHT22;23292;51.300;6.252;2024-02-21T06:10:39;8.70;99.90
37432;DHT22;23292;51.300;6.252;2024-02-21T06:13:06;8.70;99.90
37432;DHT22;23292;51.300;6.252;2024-02-21T06:15:33;8.60;99.90
37432;DHT22;23292;51.300;6.252;2024-02-21T06:17:59;8.60;99.90
37432;DHT22;23292;51.300;6.252;2024-02-21T06:20:26;8.60;99.90
37432;DHT22;23292;51.300;6.252;2024-02-21T06:22:53;8.70;99.90
37432;DHT22;23292;51.300;6.252;2024-02-21T06:25:21;8.70;99.90
37432;DHT22;23292;51.300;6.252;2024-02-21T06:27:47;8.70;99.90
37432;DHT22;23292;51.300;6.252;2024-02-21T06:30:14;8.70;99.90
37432;DHT22;23292;51.300;6.252;2024-02-21T06:32:41;8.70;99.90
37432;DHT22;23292;51.300;6.252;2024-02-21T06:35:07;8.70;99.90
37432;DHT22;23292;51.300;6.252;2024-02-21T06:37:34;8.70;99.90
37432;DHT22;23292;51.300;6.252;2024-02-21T06:40:01;8.60;99.90
37432;DHT22;23292;51.300;6.252;2024-02-21T06:42:30;8.60;99.90
37432;DHT22;23292;51.300;6.252;2024-02-21T06:44:57;8.60;99.90
37432;DHT22;23292;51.300;6.252;2024-02-21T06:47:24;8.70;99.90
37432;DHT22;23292;51.300;6.252;2024-02-21T06:49:51;8.70;99.90
37432;DHT22;23292;51.300;6.252;2024-02-21T06:52:18;8.70;99.90
37432;DHT22;23292;51.300;6.252;2024-02-21T06:54:47;8.60;99.90
37432;DHT22;23292;51.300;6.252;2024-02-21T06:57:13;8.70;99.90
37432;DHT22;23292;51.300;6.252;2024-02-21T06:59:43;8.80;99.90
37432;DHT22;23292;51.300;6.252;2024-02-21T07:02:10;8.80;99.90
37432;DHT22;23292;51.300;6.252;2024-02-21T07:04:37;8.80;99.90
37432;DHT22;23292;51.300;6.252;2024-02-21T07:07:04;8.80;99.90
37432;DHT22;23292;51.300;6.252;2024-02-21T07:09:31;8.70;99.90
37432;DHT22;23292;51.300;6.252;2024-02-21T07:11:59;8.80;99.90
37432;DHT22;23292;51.300;6.252;2024-02-21T07:14:28;8.70;99.90
37432;DHT22;23292;51.300;6.252;2024-02-21T07:16:54;8.80;99.90
37432;DHT22;23292;51.300;6.252;2024-02-21T07:19:23;8.80;99.90
37432;DHT22;23292;51.300;6.252;2024-02-21T07:21:50;8.90;99.90
37432;DHT22;23292;51.300;6.252;2024-02-21T07:24:18;8.90;99.90
37432;DHT22;23292;51.300;6.252;2024-02-21T07:26:44;8.80;99.90
37432;DHT22;23292;51.300;6.252;2024-02-21T07:29:11;9.00;99.90
37432;DHT22;23292;51.300;6.252;2024-02-21T07:31:42;9.00;99.90
37432;DHT22;23292;51.300;6.252;2024-02-21T07:34:09;9.00;99.90
37432;DHT22;23292;51.300;6.252;2024-02-21T07:36:36;9.00;99.90
37432;DHT22;23292;51.300;6.252;2024-02-21T07:39:06;9.00;99.90
37432;DHT22;23292;51.300;6.252;2024-02-21T07:41:32;9.00;99.90
37432;DHT22;23292;51.300;6.252;2024-02-21T07:44:01;9.10;99.90
37432;DHT22;23292;51.300;6.252;2024-02-21T07:46:27;9.10;99.90
37432;DHT22;23292;51.300;6.252;2024-02-21T07:48:54;9.10;99.90
37432;DHT22;23292;51.300;6.252;2024-02-21T07:51:21;9.10;99.90
37432;DHT22;23292;51.300;6.252;2024-02-21T07:53:48;9.10;99.90
37432;DHT22;23292;51.300;6.252;2024-02-21T07:56:15;9.10;99.90
37432;DHT22;23292;51.300;6.252;2024-02-21T07:58:42;9.00;99.90
37432;DHT22;23292;51.300;6.252;2024-02-21T08:01:09;9.00;99.90
37432;DHT22;23292;51.300;6.252;2024-02-21T08:03:36;9.00;99.90
37432;DHT22;23292;51.300;6.252;2024-02-21T08:06:03;9.10;99.90
37432;DHT22;23292;51.300;6.252;2024-02-21T08:08:31;9.10;99.90
37432;DHT22;23292;51.300;6.252;2024-02-21T08:10:58;9.20;99.90
37432;DHT22;23292;51.300;6.252;2024-02-21T08:13:24;9.20;99.90
37432;DHT22;23292;51.300;6.252;2024-02-21T08:15:52;9.20;99.90
37432;DHT22;23292;51.300;6.252;2024-02-21T08:18:19;9.20;99.90
37432;DHT22;23292;51.300;6.252;2024-02-21T08:20:46;9.30;99.90
37432;DHT22;23292;51.300;6.252;2024-02-21T08:23:16;9.40;99.90
37432;DHT22;23292;51.300;6.252;2024-02-21T08:25:44;9.30;99.90
37432;DHT22;23292;51.300;6.252;2024-02-21T08:28:10;9.30;99.90
37432;DHT22;23292;51.300;6.252;2024-02-21T08:30:37;9.30;99.90
37432;DHT22;23292;51.300;6.252;2024-02-21T08:33:04;9.30;99.90
37432;DHT22;23292;51.300;6.252;2024-02-21T08:35:31;9.30;99.90
37432;DHT22;23292;51.300;6.252;2024-02-21T08:37:58;9.30;99.90
37432;DHT22;23292;51.300;6.252;2024-02-21T08:40:25;9.20;99.90
37432;DHT22;23292;51.300;6.252;2024-02-21T08:42:51;9.30;99.90
37432;DHT22;23292;51.300;6.252;2024-02-21T08:45:20;9.30;99.90
37432;DHT22;23292;51.300;6.252;2024-02-21T08:47:47;9.30;99.90
37432;DHT22;23292;51.300;6.252;2024-02-21T08:50:14;9.30;99.90
37432;DHT22;23292;51.300;6.252;2024-02-21T08:52:54;9.20;99.90
37432;DHT22;23292;51.300;6.252;2024-02-21T08:55:21;9.30;99.90
37432;DHT22;23292;51.300;6.252;2024-02-21T08:57:48;9.20;99.90
37432;DHT22;23292;51.300;6.252;2024-02-21T09:00:16;9.20;99.90
37432;DHT22;23292;51.300;6.252;2024-02-21T09:02:43;9.20;99.90
37432;DHT22;23292;51.300;6.252;2024-02-21T09:05:13;9.30;99.90
37432;DHT22;23292;51.300;6.252;2024-02-21T09:07:40;9.30;99.90
37432;DHT22;23292;51.300;6.252;2024-02-21T09:10:07;9.30;99.90
37432;DHT22;23292;51.300;6.252;2024-02-21T09:12:34;9.20;99.90
37432;DHT22;23292;51.300;6.252;2024-02-21T09:15:01;9.20;99.90
37432;DHT22;23292;51.300;6.252;2024-02-21T09:17:28;9.30;99.90
37432;DHT22;23292;51.300;6.252;2024-02-21T09:19:56;9.40;99.90
37432;DHT22;23292;51.300;6.252;2024-02-21T09:22:26;9.40;99.90
37432;DHT22;23292;51.300;6.252;2024-02-21T09:24:54;9.50;99.90
37432;DHT22;23292;51.300;6.252;2024-02-21T09:27:21;9.50;99.90
37432;DHT22;23292;51.300;6.252;2024-02-21T09:29:48;9.40;99.90
37432;DHT22;23292;51.300;6.252;2024-02-21T09:32:15;9.40;99.90
37432;DHT22;23292;51.300;6.252;2024-02-21T09:34:42;9.50;99.90
37432;DHT22;23292;51.300;6.252;2024-02-21T09:37:09;9.60;99.90
37432;DHT22;23292;51.300;6.252;2024-02-21T09:39:36;9.60;99.90
37432;DHT22;23292;51.300;6.252;2024-02-21T09:42:06;9.60;99.90
37432;DHT22;23292;51.300;6.252;2024-02-21T09:44:37;9.70;99.90
37432;DHT22;23292;51.300;6.252;2024-02-21T09:47:12;9.60;99.90
37432;DHT22;23292;51.300;6.252;2024-02-21T09:49:42;9.70;99.90
37432;DHT22;23292;51.300;6.252;2024-02-21T09:52:12;9.70;99.90
37432;DHT22;23292;51.300;6.252;2024-02-21T09:54:41;9.80;99.90
37432;DHT22;23292;51.300;6.252;2024-02-21T09:57:12;9.90;99.90
37432;DHT22;23292;51.300;6.252;2024-02-21T09:59:39;9.80;99.90
37432;DHT22;23292;51.300;6.252;2024-02-21T10:02:08;9.90;99.90
37432;DHT22;23292;51.300;6.252;2024-02-21T10:04:35;10.00;99.90
37432;DHT22;23292;51.300;6.252;2024-02-21T10:07:03;9.90;99.90
37432;DHT22;23292;51.300;6.252;2024-02-21T10:09:30;10.00;99.90
37432;DHT22;23292;51.300;6.252;2024-02-21T10:12:11;10.20;99.90
37432;DHT22;23292;51.300;6.252;2024-02-21T10:14:40;10.30;99.90
37432;DHT22;23292;51.300;6.252;2024-02-21T10:17:07;10.40;99.90
37432;DHT22;23292;51.300;6.252;2024-02-21T10:19:37;10.40;99.90
37432;DHT22;23292;51.300;6.252;2024-02-21T10:22:09;10.50;99.90
37432;DHT22;23292;51.300;6.252;2024-02-21T10:24:37;10.50;99.90
37432;DHT22;23292;51.300;6.252;2024-02-21T10:27:10;10.50;99.90
37432;DHT22;23292;51.300;6.252;2024-02-21T10:29:40;10.70;99.90
37432;DHT22;23292;51.300;6.252;2024-02-21T10:32:14;10.80;99.90
37432;DHT22;23292;51.300;6.252;2024-02-21T10:34:42;10.80;99.90
37432;DHT22;23292;51.300;6.252;2024-02-21T10:37:10;10.80;99.90
37432;DHT22;23292;51.300;6.252;2024-02-21T10:39:39;10.70;99.90
37432;DHT22;23292;51.300;6.252;2024-02-21T10:42:06;10.80;99.90
37432;DHT22;23292;51.300;6.252;2024-02-21T10:44:39;11.00;99.90
37432;DHT22;23292;51.300;6.252;2024-02-21T10:47:11;11.10;99.90
37432;DHT22;23292;51.300;6.252;2024-02-21T10:49:41;11.20;99.90
37432;DHT22;23292;51.300;6.252;2024-02-21T10:55:12;11.10;99.90
37432;DHT22;23292;51.300;6.252;2024-02-21T10:57:42;11.10;99.90
37432;DHT22;23292;51.300;6.252;2024-02-21T11:00:10;11.30;99.90
37432;DHT22;23292;51.300;6.252;2024-02-21T11:02:39;11.40;99.90
37432;DHT22;23292;51.300;6.252;2024-02-21T11:05:07;11.40;99.90
37432;DHT22;23292;51.300;6.252;2024-02-21T11:07:37;11.40;99.90
37432;DHT22;23292;51.300;6.252;2024-02-21T11:10:04;11.40;99.90
37432;DHT22;23292;51.300;6.252;2024-02-21T11:12:33;11.60;99.90
37432;DHT22;23292;51.300;6.252;2024-02-21T11:15:07;11.70;99.90
37432;DHT22;23292;51.300;6.252;2024-02-21T11:17:34;11.40;99.90
37432;DHT22;23292;51.300;6.252;2024-02-21T11:20:15;11.30;99.90
37432;DHT22;23292;51.300;6.252;2024-02-21T11:22:43;11.40;99.90
37432;DHT22;23292;51.300;6.252;2024-02-21T11:25:10;11.50;99.90
37432;DHT22;23292;51.300;6.252;2024-02-21T11:27:47;11.50;99.90
37432;DHT22;23292;51.300;6.252;2024-02-21T11:30:14;11.40;99.90
37432;DHT22;23292;51.300;6.252;2024-02-21T11:32:43;11.60;99.90
37432;DHT22;23292;51.300;6.252;2024-02-21T11:35:19;11.60;99.90
37432;DHT22;23292;51.300;6.252;2024-02-21T11:37:46;11.60;99.90
37432;DHT22;23292;51.300;6.252;2024-02-21T11:40:13;11.70;99.90
37432;DHT22;23292;51.300;6.252;2024-02-21T11:42:40;11.80;99.90
37432;DHT22;23292;51.300;6.252;2024-02-21T11:45:07;11.90;99.90
37432;DHT22;23292;51.300;6.252;2024-02-21T11:47:36;12.10;99.90
37432;DHT22;23292;51.300;6.252;2024-02-21T11:50:10;12.30;99.90
37432;DHT22;23292;51.300;6.252;2024-02-21T11:52:37;12.40;99.90
37432;DHT22;23292;51.300;6.252;2024-02-21T11:55:04;12.40;99.90
37432;DHT22;23292;51.300;6.252;2024-02-21T11:57:32;12.50;99.90
37432;DHT22;23292;51.300;6.252;2024-02-21T12:00:15;12.50;99.90
37432;DHT22;23292;51.300;6.252;2024-02-21T12:02:45;12.70;99.90
37432;DHT22;23292;51.300;6.252;2024-02-21T12:05:13;12.60;99.90
37432;DHT22;23292;51.300;6.252;2024-02-21T12:07:40;12.60;99.90
37432;DHT22;23292;51.300;6.252;2024-02-21T12:10:11;12.70;99.90
37432;DHT22;23292;51.300;6.252;2024-02-21T12:12:39;12.60;99.90
37432;DHT22;23292;51.300;6.252;2024-02-21T12:15:07;12.60;99.90
37432;DHT22;23292;51.300;6.252;2024-02-21T12:17:35;12.80;99.90
37432;DHT22;23292;51.300;6.252;2024-02-21T12:20:03;12.80;99.90
37432;DHT22;23292;51.300;6.252;2024-02-21T12:22:38;13.30;99.90
37432;DHT22;23292;51.300;6.252;2024-02-21T12:25:23;13.30;99.90
37432;DHT22;23292;51.300;6.252;2024-02-21T12:27:52;13.50;99.90
37432;DHT22;23292;51.300;6.252;2024-02-21T12:30:20;13.50;99.90
37432;DHT22;23292;51.300;6.252;2024-02-21T12:32:47;13.60;99.90
37432;DHT22;23292;51.300;6.252;2024-02-21T12:35:15;13.60;99.90
37432;DHT22;23292;51.300;6.252;2024-02-21T12:37:44;13.50;99.90
37432;DHT22;23292;51.300;6.252;2024-02-21T12:40:12;13.40;99.90
37432;DHT22;23292;51.300;6.252;2024-02-21T12:42:40;13.40;99.90
37432;DHT22;23292;51.300;6.252;2024-02-21T12:45:08;13.50;99.90
37432;DHT22;23292;51.300;6.252;2024-02-21T12:47:35;13.20;99.90
37432;DHT22;23292;51.300;6.252;2024-02-21T12:50:03;13.30;99.90
37432;DHT22;23292;51.300;6.252;2024-02-21T12:52:30;13.40;99.90
37432;DHT22;23292;51.300;6.252;2024-02-21T12:54:58;13.40;99.90
37432;DHT22;23292;51.300;6.252;2024-02-21T12:57:25;13.30;99.90
37432;DHT22;23292;51.300;6.252;2024-02-21T12:59:54;13.30;99.90
37432;DHT22;23292;51.300;6.252;2024-02-21T13:02:21;13.40;99.90
37432;DHT22;23292;51.300;6.252;2024-02-21T13:04:48;13.50;99.90
37432;DHT22;23292;51.300;6.252;2024-02-21T13:07:16;13.40;99.90
37432;DHT22;23292;51.300;6.252;2024-02-21T13:09:42;13.30;99.90
37432;DHT22;23292;51.300;6.252;2024-02-21T13:12:09;13.30;99.90
37432;DHT22;23292;51.300;6.252;2024-02-21T13:14:36;13.40;99.90
37432;DHT22;23292;51.300;6.252;2024-02-21T13:17:05;13.30;99.90
37432;DHT22;23292;51.300;6.252;2024-02-21T13:19:32;13.40;99.90
37432;DHT22;23292;51.300;6.252;2024-02-21T13:21:59;13.50;99.90
37432;DHT22;23292;51.300;6.252;2024-02-21T13:24:26;13.30;99.90
37432;DHT22;23292;51.300;6.252;2024-02-21T13:26:53;13.20;99.90
37432;DHT22;23292;51.300;6.252;2024-02-21T13:29:20;13.30;99.90
37432;DHT22;23292;51.300;6.252;2024-02-21T13:31:47;13.20;99.90
37432;DHT22;23292;51.300;6.252;2024-02-21T13:41:30;12.90;99.90
37432;DHT22;23292;51.300;6.252;2024-02-21T13:43:57;12.90;99.90
37432;DHT22;23292;51.300;6.252;2024-02-21T13:46:24;12.80;99.90
37432;DHT22;23292;51.300;6.252;2024-02-21T13:48:54;12.90;99.90
37432;DHT22;23292;51.300;6.252;2024-02-21T13:51:25;12.80;99.90
37432;DHT22;23292;51.300;6.252;2024-02-21T13:53:52;12.80;99.90
37432;DHT22;23292;51.300;6.252;2024-02-21T13:56:18;12.60;99.90
37432;DHT22;23292;51.300;6.252;2024-02-21T13:58:45;12.60;99.90
37432;DHT22;23292;51.300;6.252;2024-02-21T14:01:12;12.70;99.90
37432;DHT22;23292;51.300;6.252;2024-02-21T14:03:39;12.70;99.90
37432;DHT22;23292;51.300;6.252;2024-02-21T14:06:05;12.50;99.90
37432;DHT22;23292;51.300;6.252;2024-02-21T14:08:32;12.60;99.90
37432;DHT22;23292;51.300;6.252;2024-02-21T14:11:00;12.50;99.90
37432;DHT22;23292;51.300;6.252;2024-02-21T14:13:27;12.40;99.90
37432;DHT22;23292;51.300;6.252;2024-02-21T14:15:55;12.40;99.90
37432;DHT22;23292;51.300;6.252;2024-02-21T14:18:21;12.40;99.90
37432;DHT22;23292;51.300;6.252;2024-02-21T14:20:48;12.40;99.90
37432;DHT22;23292;51.300;6.252;2024-02-21T14:23:15;12.30;99.90
37432;DHT22;23292;51.300;6.252;2024-02-21T14:25:42;12.40;99.90
37432;DHT22;23292;51.300;6.252;2024-02-21T14:28:09;12.50;99.90
37432;DHT22;23292;51.300;6.252;2024-02-21T14:30:36;12.40;99.90
37432;DHT22;23292;51.300;6.252;2024-02-21T14:33:03;12.40;99.90
37432;DHT22;23292;51.300;6.252;2024-02-21T14:35:30;12.20;99.90
37432;DHT22;23292;51.300;6.252;2024-02-21T14:37:57;12.30;99.90
37432;DHT22;23292;51.300;6.252;2024-02-21T14:40:24;12.20;99.90
37432;DHT22;23292;51.300;6.252;2024-02-21T14:42:51;12.20;99.90
37432;DHT22;23292;51.300;6.252;2024-02-21T14:45:19;12.20;99.90
37432;DHT22;23292;51.300;6.252;2024-02-21T14:47:45;12.10;99.90
37432;DHT22;23292;51.300;6.252;2024-02-21T14:50:12;12.10;99.90
37432;DHT22;23292;51.300;6.252;2024-02-21T14:52:39;12.10;99.90
37432;DHT22;23292;51.300;6.252;2024-02-21T14:55:06;12.00;99.90
37432;DHT22;23292;51.300;6.252;2024-02-21T14:57:33;12.10;99.90
37432;DHT22;23292;51.300;6.252;2024-02-21T15:00:00;12.10;99.90
37432;DHT22;23292;51.300;6.252;2024-02-21T15:02:28;12.00;99.90
37432;DHT22;23292;51.300;6.252;2024-02-21T15:04:55;11.90;99.90
37432;DHT22;23292;51.300;6.252;2024-02-21T15:07:23;11.90;99.90
37432;DHT22;23292;51.300;6.252;2024-02-21T15:09:53;11.90;99.90
37432;DHT22;23292;51.300;6.252;2024-02-21T15:12:20;11.90;99.90
37432;DHT22;23292;51.300;6.252;2024-02-21T15:14:49;11.90;99.90
37432;DHT22;23292;51.300;6.252;2024-02-21T15:17:16;11.90;99.90
37432;DHT22;23292;51.300;6.252;2024-02-21T15:19:46;11.90;99.90
37432;DHT22;23292;51.300;6.252;2024-02-21T15:22:14;11.80;99.90
37432;DHT22;23292;51.300;6.252;2024-02-21T15:24:41;11.70;99.90
37432;DHT22;23292;51.300;6.252;2024-02-21T15:27:08;11.60;99.90
37432;DHT22;23292;51.300;6.252;2024-02-21T15:29:35;11.60;99.90
37432;DHT22;23292;51.300;6.252;2024-02-21T15:32:03;11.60;99.90
37432;DHT22;23292;51.300;6.252;2024-02-21T15:34:30;11.50;99.90
37432;DHT22;23292;51.300;6.252;2024-02-21T15:36:58;11.40;99.90
37432;DHT22;23292;51.300;6.252;2024-02-21T15:39:25;11.40;99.90
37432;DHT22;23292;51.300;6.252;2024-02-21T15:41:55;11.40;99.90
37432;DHT22;23292;51.300;6.252;2024-02-21T15:44:25;11.30;99.90
37432;DHT22;23292;51.300;6.252;2024-02-21T15:46:51;11.30;99.90
37432;DHT22;23292;51.300;6.252;2024-02-21T15:49:19;11.30;99.90
37432;DHT22;23292;51.300;6.252;2024-02-21T15:51:46;11.30;99.90
37432;DHT22;23292;51.300;6.252;2024-02-21T15:54:14;11.30;99.90